createdAt,value
2023-05-14T00:00:04.019Z,16.68
2023-05-14T00:01:04.025Z,16.45
2023-05-14T00:02:04.068Z,16.38
2023-05-14T00:03:04.056Z,16.38
2023-05-14T00:04:04.108Z,16.36
2023-05-14T00:05:03.974Z,16.06
2023-05-14T00:06:03.991Z,16.27
2023-05-14T00:07:03.971Z,16.48
2023-05-14T00:08:03.970Z,16.36
2023-05-14T00:09:04.000Z,16.26
2023-05-14T00:10:03.964Z,16.32
2023-05-14T00:11:03.957Z,16.27
2023-05-14T00:12:03.974Z,16.23
2023-05-14T00:13:03.917Z,16.13
2023-05-14T00:14:03.907Z,16.07
2023-05-14T00:15:03.907Z,15.76
2023-05-14T00:16:03.929Z,15.78
2023-05-14T00:17:03.893Z,15.49
2023-05-14T00:18:03.944Z,15.57
2023-05-14T00:19:03.965Z,15.69
2023-05-14T00:20:03.920Z,16.00
2023-05-14T00:21:03.890Z,15.88
2023-05-14T00:22:03.857Z,15.47
2023-05-14T00:23:03.865Z,15.66
2023-05-14T00:24:03.848Z,15.49
2023-05-14T00:25:03.861Z,15.36
2023-05-14T00:26:03.817Z,15.70
2023-05-14T00:27:03.876Z,15.40
2023-05-14T00:28:03.834Z,15.44
2023-05-14T00:29:03.820Z,15.38
2023-05-14T00:30:03.799Z,15.40
2023-05-14T00:31:03.807Z,14.89
2023-05-14T00:32:03.797Z,15.20
2023-05-14T00:33:03.898Z,14.90
2023-05-14T00:34:03.743Z,15.26
2023-05-14T00:35:03.787Z,14.96
2023-05-14T00:36:03.736Z,14.90
2023-05-14T00:37:03.774Z,14.81
2023-05-14T00:38:03.793Z,15.12
2023-05-14T00:39:03.775Z,14.93
2023-05-14T00:40:03.837Z,14.84
2023-05-14T00:41:03.748Z,15.11
2023-05-14T00:42:03.728Z,14.75
2023-05-14T00:43:03.712Z,14.56
2023-05-14T00:44:03.729Z,14.61
2023-05-14T00:45:03.695Z,14.89
2023-05-14T00:46:03.706Z,14.55
2023-05-14T00:47:03.837Z,14.32
2023-05-14T00:48:03.753Z,14.48
2023-05-14T00:49:03.704Z,14.64
2023-05-14T00:50:03.665Z,14.44
2023-05-14T00:51:03.639Z,14.29
2023-05-14T00:52:03.664Z,14.20
2023-05-14T00:53:03.655Z,14.47
2023-05-14T00:54:03.649Z,14.17
2023-05-14T00:55:03.659Z,14.16
2023-05-14T00:56:03.631Z,14.20
2023-05-14T00:57:03.602Z,14.43
2023-05-14T00:58:03.599Z,14.16
2023-05-14T00:59:03.606Z,14.34
2023-05-14T01:00:03.589Z,14.18
2023-05-14T01:01:03.645Z,14.17
2023-05-14T01:02:03.608Z,14.21
2023-05-14T01:03:03.759Z,14.19
2023-05-14T01:04:03.623Z,13.87
2023-05-14T01:05:03.575Z,14.15
2023-05-14T01:06:03.579Z,14.24
2023-05-14T01:07:03.556Z,14.33
2023-05-14T01:08:03.591Z,14.16
2023-05-14T01:09:03.551Z,14.02
2023-05-14T01:10:03.557Z,13.99
2023-05-14T01:11:03.560Z,13.92
2023-05-14T01:12:03.549Z,13.85
2023-05-14T01:13:03.529Z,13.72
2023-05-14T01:14:03.506Z,13.81
2023-05-14T01:15:03.521Z,13.83
2023-05-14T01:16:03.516Z,13.48
2023-05-14T01:17:03.475Z,13.48
2023-05-14T01:18:03.530Z,13.71
2023-05-14T01:19:03.476Z,13.53
2023-05-14T01:20:03.455Z,13.45
2023-05-14T01:21:03.438Z,14.02
2023-05-14T01:22:03.453Z,13.28
2023-05-14T01:23:03.439Z,13.38
2023-05-14T01:24:03.454Z,13.28
2023-05-14T01:25:03.436Z,13.43
2023-05-14T01:26:03.434Z,13.23
2023-05-14T01:27:03.393Z,13.29
2023-05-14T01:28:03.430Z,13.27
2023-05-14T01:29:03.394Z,13.03
2023-05-14T01:30:03.413Z,13.01
2023-05-14T01:31:03.379Z,13.03
2023-05-14T01:32:03.478Z,13.01
2023-05-14T01:33:03.421Z,12.82
2023-05-14T01:34:03.354Z,12.94
2023-05-14T01:35:03.359Z,13.01
2023-05-14T01:36:03.382Z,13.22
2023-05-14T01:37:03.320Z,13.06
2023-05-14T01:38:03.333Z,13.05
2023-05-14T01:39:03.341Z,12.95
2023-05-14T01:40:03.354Z,13.13
2023-05-14T01:41:03.307Z,12.72
2023-05-14T01:42:03.356Z,12.69
2023-05-14T01:43:03.335Z,13.04
2023-05-14T01:44:03.288Z,12.67
2023-05-14T01:45:03.317Z,12.63
2023-05-14T01:46:03.345Z,12.67
2023-05-14T01:47:03.235Z,12.83
2023-05-14T01:48:03.297Z,12.44
2023-05-14T01:49:03.223Z,12.19
2023-05-14T01:50:03.238Z,12.36
2023-05-14T01:51:03.264Z,12.40
2023-05-14T01:52:03.262Z,12.31
2023-05-14T01:53:03.227Z,12.33
2023-05-14T01:54:03.232Z,12.18
2023-05-14T01:55:03.233Z,12.31
2023-05-14T01:56:03.255Z,12.38
2023-05-14T01:57:03.213Z,12.16
2023-05-14T01:58:03.204Z,11.91
2023-05-14T01:59:03.167Z,11.96
2023-05-14T02:00:03.178Z,12.22
2023-05-14T02:01:03.123Z,12.23
2023-05-14T02:02:03.167Z,12.34
2023-05-14T02:03:03.229Z,12.05
2023-05-14T02:04:03.201Z,11.90
2023-05-14T02:05:04.338Z,12.02
2023-05-14T02:06:03.118Z,12.25
2023-05-14T02:07:03.102Z,11.93
2023-05-14T02:08:03.102Z,12.07
2023-05-14T02:09:03.141Z,11.90
2023-05-14T02:10:03.145Z,11.97
2023-05-14T02:11:03.092Z,11.88
2023-05-14T02:12:03.073Z,11.78
2023-05-14T02:13:03.088Z,11.81
2023-05-14T02:14:03.084Z,11.72
2023-05-14T02:15:03.069Z,11.76
2023-05-14T02:16:03.118Z,11.62
2023-05-14T02:17:03.060Z,11.56
2023-05-14T02:18:03.107Z,11.63
2023-05-14T02:19:03.090Z,11.67
2023-05-14T02:20:03.054Z,11.57
2023-05-14T02:21:03.028Z,11.69
2023-05-14T02:22:03.011Z,11.66
2023-05-14T02:23:03.033Z,11.55
2023-05-14T02:24:02.981Z,11.19
2023-05-14T02:25:02.986Z,11.42
2023-05-14T02:26:02.969Z,11.52
2023-05-14T02:27:02.974Z,11.45
2023-05-14T02:28:03.027Z,11.33
2023-05-14T02:29:02.977Z,11.35
2023-05-14T02:30:03.003Z,11.39
2023-05-14T02:31:03.012Z,11.52
2023-05-14T02:32:02.962Z,11.43
2023-05-14T02:33:03.054Z,11.15
2023-05-14T02:34:02.933Z,11.42
2023-05-14T02:35:02.916Z,11.16
2023-05-14T02:36:02.935Z,11.22
2023-05-14T02:37:02.932Z,11.54
2023-05-14T02:38:02.897Z,11.33
2023-05-14T02:39:02.895Z,11.23
2023-05-14T02:40:02.876Z,10.99
2023-05-14T02:41:02.869Z,11.21
2023-05-14T02:42:02.882Z,11.08
2023-05-14T02:43:02.872Z,10.90
2023-05-14T02:44:02.879Z,10.65
2023-05-14T02:45:02.853Z,10.62
2023-05-14T02:46:02.871Z,10.88
2023-05-14T02:47:02.933Z,10.75
2023-05-14T02:48:02.861Z,10.81
2023-05-14T02:49:02.805Z,10.75
2023-05-14T02:50:02.829Z,10.96
2023-05-14T02:51:02.831Z,10.73
2023-05-14T02:52:02.816Z,10.67
2023-05-14T02:53:02.814Z,10.49
2023-05-14T02:54:02.796Z,10.70
2023-05-14T02:55:02.769Z,10.47
2023-05-14T02:56:02.770Z,10.57
2023-05-14T02:57:02.784Z,10.43
2023-05-14T02:58:02.757Z,10.69
2023-05-14T02:59:02.741Z,10.50
2023-05-14T03:00:02.774Z,10.31
2023-05-14T03:01:02.764Z,10.44
2023-05-14T03:02:02.781Z,10.48
2023-05-14T03:03:02.744Z,10.29
2023-05-14T03:04:02.737Z,10.49
2023-05-14T03:05:02.708Z,10.29
2023-05-14T03:06:02.724Z,10.42
2023-05-14T03:07:02.690Z,10.27
2023-05-14T03:08:02.712Z,10.50
2023-05-14T03:09:02.681Z,10.34
2023-05-14T03:10:02.677Z,10.23
2023-05-14T03:11:02.663Z,10.22
2023-05-14T03:12:02.677Z,10.37
2023-05-14T03:13:02.698Z,10.27
2023-05-14T03:14:02.653Z,9.99
2023-05-14T03:15:02.669Z,10.25
2023-05-14T03:16:02.662Z,10.15
2023-05-14T03:17:02.841Z,9.94
2023-05-14T03:18:02.665Z,10.18
2023-05-14T03:19:02.643Z,10.23
2023-05-14T03:20:02.620Z,9.70
2023-05-14T03:21:02.625Z,10.12
2023-05-14T03:22:02.641Z,9.97
2023-05-14T03:23:02.594Z,9.86
2023-05-14T03:24:02.632Z,9.87
2023-05-14T03:25:02.559Z,9.73
2023-05-14T03:26:02.577Z,9.97
2023-05-14T03:27:02.567Z,9.85
2023-05-14T03:28:02.557Z,9.85
2023-05-14T03:29:02.577Z,9.62
2023-05-14T03:30:02.556Z,9.83
2023-05-14T03:31:02.590Z,9.66
2023-05-14T03:32:02.535Z,9.78
2023-05-14T03:33:02.516Z,9.56
2023-05-14T03:34:02.555Z,9.56
2023-05-14T03:35:02.528Z,9.64
2023-05-14T03:36:02.485Z,9.65
2023-05-14T03:37:02.491Z,9.67
2023-05-14T03:38:02.460Z,9.46
2023-05-14T03:39:02.492Z,9.45
2023-05-14T03:40:02.499Z,9.32
2023-05-14T03:41:02.446Z,9.44
2023-05-14T03:42:02.484Z,9.15
2023-05-14T03:43:02.472Z,9.44
2023-05-14T03:44:02.464Z,9.23
2023-05-14T03:45:02.418Z,9.31
2023-05-14T03:46:02.439Z,9.15
2023-05-14T03:47:02.491Z,9.09
2023-05-14T03:48:02.515Z,9.37
2023-05-14T03:49:02.597Z,9.35
2023-05-14T03:50:02.407Z,9.26
2023-05-14T03:51:02.442Z,9.24
2023-05-14T03:52:02.510Z,9.19
2023-05-14T03:53:02.520Z,8.95
2023-05-14T03:54:02.499Z,8.88
2023-05-14T03:55:02.523Z,8.94
2023-05-14T03:56:02.570Z,9.15
2023-05-14T03:57:02.548Z,9.02
2023-05-14T03:58:02.554Z,8.92
2023-05-14T03:59:02.562Z,8.89
2023-05-14T04:00:02.625Z,8.75
2023-05-14T04:01:02.590Z,9.05
2023-05-14T04:02:02.610Z,8.93
2023-05-14T04:03:02.852Z,9.05
2023-05-14T04:04:02.746Z,9.01
2023-05-14T04:05:02.670Z,8.71
2023-05-14T04:06:02.668Z,8.84
2023-05-14T04:07:02.721Z,8.84
2023-05-14T04:08:02.698Z,8.90
2023-05-14T04:09:02.750Z,8.87
2023-05-14T04:10:04.352Z,8.76
2023-05-14T04:11:02.724Z,8.48
2023-05-14T04:12:02.742Z,8.67
2023-05-14T04:13:02.699Z,8.59
2023-05-14T04:14:02.698Z,8.59
2023-05-14T04:15:02.679Z,8.63
2023-05-14T04:16:02.735Z,8.67
2023-05-14T04:17:02.680Z,8.66
2023-05-14T04:18:02.701Z,8.65
2023-05-14T04:19:02.727Z,8.55
2023-05-14T04:20:02.696Z,8.50
2023-05-14T04:21:02.723Z,8.42
2023-05-14T04:22:02.739Z,8.65
2023-05-14T04:23:02.753Z,8.57
2023-05-14T04:24:02.779Z,8.24
2023-05-14T04:25:02.741Z,8.54
2023-05-14T04:26:02.784Z,8.64
2023-05-14T04:27:02.803Z,8.23
2023-05-14T04:28:02.863Z,8.19
2023-05-14T04:29:02.873Z,8.21
2023-05-14T04:30:02.827Z,8.33
2023-05-14T04:31:02.813Z,8.36
2023-05-14T04:32:02.916Z,8.21
2023-05-14T04:33:02.934Z,8.31
2023-05-14T04:34:02.906Z,8.42
2023-05-14T04:35:02.860Z,8.30
2023-05-14T04:36:02.913Z,8.17
2023-05-14T04:37:02.918Z,8.23
2023-05-14T04:38:02.918Z,8.18
2023-05-14T04:39:02.911Z,8.15
2023-05-14T04:40:03.135Z,8.05
2023-05-14T04:41:02.966Z,8.01
2023-05-14T04:42:02.956Z,7.88
2023-05-14T04:43:03.017Z,8.20
2023-05-14T04:44:03.016Z,8.01
2023-05-14T04:45:03.092Z,8.00
2023-05-14T04:46:03.142Z,8.07
2023-05-14T04:47:03.084Z,8.02
2023-05-14T04:48:03.111Z,8.10
2023-05-14T04:49:03.074Z,7.82
2023-05-14T04:50:03.089Z,7.84
2023-05-14T04:51:04.023Z,7.88
2023-05-14T04:52:03.138Z,7.89
2023-05-14T04:53:03.143Z,7.90
2023-05-14T04:54:03.225Z,7.82
2023-05-14T04:55:03.180Z,7.85
2023-05-14T04:56:03.194Z,7.90
2023-05-14T04:57:03.267Z,7.88
2023-05-14T04:58:03.196Z,7.70
2023-05-14T04:59:03.178Z,7.68
2023-05-14T05:00:03.201Z,7.66
2023-05-14T05:01:03.260Z,7.78
2023-05-14T05:02:03.288Z,7.68
2023-05-14T05:03:03.416Z,7.71
2023-05-14T05:04:03.404Z,7.71
2023-05-14T05:05:03.308Z,7.66
2023-05-14T05:06:03.298Z,7.76
2023-05-14T05:07:03.334Z,7.83
2023-05-14T05:08:03.445Z,7.64
2023-05-14T05:09:03.349Z,7.73
2023-05-14T05:10:03.367Z,7.65
2023-05-14T05:11:03.400Z,7.46
2023-05-14T05:12:03.431Z,7.71
2023-05-14T05:13:03.391Z,7.64
2023-05-14T05:14:03.463Z,7.69
2023-05-14T05:15:03.428Z,7.60
2023-05-14T05:16:03.491Z,7.59
2023-05-14T05:17:03.449Z,7.69
2023-05-14T05:18:03.502Z,7.49
2023-05-14T05:19:03.565Z,7.53
2023-05-14T05:20:03.520Z,7.49
2023-05-14T05:21:03.490Z,7.48
2023-05-14T05:22:03.548Z,7.39
2023-05-14T05:23:03.513Z,7.39
2023-05-14T05:24:03.644Z,7.35
2023-05-14T05:25:03.528Z,7.51
2023-05-14T05:26:03.539Z,7.52
2023-05-14T05:27:03.588Z,7.51
2023-05-14T05:28:03.550Z,7.38
2023-05-14T05:29:03.610Z,7.48
2023-05-14T05:30:03.574Z,7.17
2023-05-14T05:31:03.677Z,7.42
2023-05-14T05:32:03.640Z,7.39
2023-05-14T05:33:03.688Z,7.27
2023-05-14T05:34:03.638Z,7.27
2023-05-14T05:35:03.663Z,7.45
2023-05-14T05:36:03.696Z,7.25
2023-05-14T05:37:03.656Z,7.38
2023-05-14T05:38:03.730Z,7.23
2023-05-14T05:39:03.677Z,7.39
2023-05-14T05:40:03.769Z,7.28
2023-05-14T05:41:03.696Z,7.26
2023-05-14T05:42:03.762Z,7.19
2023-05-14T05:43:03.722Z,7.23
2023-05-14T05:44:03.789Z,7.12
2023-05-14T05:45:03.811Z,7.19
2023-05-14T05:46:03.846Z,7.08
2023-05-14T05:47:03.844Z,7.21
2023-05-14T05:48:03.836Z,7.00
2023-05-14T05:49:03.828Z,7.24
2023-05-14T05:50:03.842Z,7.09
2023-05-14T05:51:03.872Z,6.80
2023-05-14T05:52:03.873Z,7.07
2023-05-14T05:53:03.872Z,7.24
2023-05-14T05:54:03.935Z,7.02
2023-05-14T05:55:03.896Z,6.97
2023-05-14T05:56:03.891Z,7.05
2023-05-14T05:57:03.942Z,6.95
2023-05-14T05:58:03.962Z,6.97
2023-05-14T05:59:03.990Z,6.94
2023-05-14T06:00:03.996Z,6.93
2023-05-14T06:01:04.013Z,7.07
2023-05-14T06:02:04.104Z,6.88
2023-05-14T06:03:04.046Z,6.78
2023-05-14T06:04:04.062Z,6.81
2023-05-14T06:05:04.077Z,6.77
2023-05-14T06:06:04.067Z,6.99
2023-05-14T06:07:04.092Z,6.80
2023-05-14T06:08:04.124Z,6.92
2023-05-14T06:09:04.119Z,6.70
2023-05-14T06:10:04.153Z,6.70
2023-05-14T06:11:04.112Z,6.80
2023-05-14T06:12:04.226Z,6.69
2023-05-14T06:13:04.137Z,6.92
2023-05-14T06:14:04.152Z,6.79
2023-05-14T06:15:04.178Z,6.74
2023-05-14T06:16:04.307Z,6.83
2023-05-14T06:17:04.194Z,6.74
2023-05-14T06:18:04.286Z,6.78
2023-05-14T06:19:04.260Z,6.66
2023-05-14T06:20:04.281Z,6.76
2023-05-14T06:21:04.245Z,6.58
2023-05-14T06:22:04.335Z,6.79
2023-05-14T06:23:04.281Z,6.75
2023-05-14T06:24:04.273Z,6.70
2023-05-14T06:25:04.318Z,6.66
2023-05-14T06:26:04.275Z,6.77
2023-05-14T06:27:04.288Z,6.67
2023-05-14T06:28:04.302Z,6.69
2023-05-14T06:29:04.289Z,6.61
2023-05-14T06:30:04.286Z,6.49
2023-05-14T06:31:04.289Z,6.47
2023-05-14T06:32:04.359Z,6.38
2023-05-14T06:33:04.394Z,6.43
2023-05-14T06:34:04.332Z,6.40
2023-05-14T06:35:04.331Z,6.45
2023-05-14T06:36:04.344Z,6.49
2023-05-14T06:37:04.332Z,6.40
2023-05-14T06:38:04.442Z,6.34
2023-05-14T06:39:04.387Z,6.35
2023-05-14T06:40:04.379Z,6.33
2023-05-14T06:41:04.436Z,6.26
2023-05-14T06:42:04.406Z,6.42
2023-05-14T06:43:04.404Z,6.22
2023-05-14T06:44:04.399Z,6.27
2023-05-14T06:45:04.405Z,6.20
2023-05-14T06:46:04.411Z,6.13
2023-05-14T06:47:04.430Z,6.33
2023-05-14T06:48:04.510Z,6.25
2023-05-14T06:49:04.501Z,6.06
2023-05-14T06:50:04.507Z,6.30
2023-05-14T06:51:04.463Z,6.10
2023-05-14T06:52:04.454Z,6.13
2023-05-14T06:53:04.446Z,6.19
2023-05-14T06:54:04.445Z,6.17
2023-05-14T06:55:04.442Z,6.11
2023-05-14T06:56:04.449Z,6.06
2023-05-14T06:57:04.447Z,5.97
2023-05-14T06:58:04.428Z,6.09
2023-05-14T06:59:04.485Z,6.07
2023-05-14T07:00:04.486Z,5.94
2023-05-14T07:01:04.508Z,5.82
2023-05-14T07:02:04.466Z,5.89
2023-05-14T07:03:04.486Z,6.04
2023-05-14T07:04:04.534Z,6.04
2023-05-14T07:05:04.453Z,6.04
2023-05-14T07:06:04.516Z,5.90
2023-05-14T07:07:04.455Z,5.93
2023-05-14T07:08:04.458Z,5.97
2023-05-14T07:09:04.471Z,5.98
2023-05-14T07:10:04.488Z,5.82
2023-05-14T07:11:04.491Z,5.83
2023-05-14T07:12:04.449Z,5.86
2023-05-14T07:13:04.482Z,5.76
2023-05-14T07:14:04.470Z,5.82
2023-05-14T07:15:04.491Z,5.74
2023-05-14T07:16:04.447Z,5.76
2023-05-14T07:17:04.526Z,5.64
2023-05-14T07:18:04.501Z,5.83
2023-05-14T07:19:04.509Z,5.61
2023-05-14T07:20:04.487Z,5.67
2023-05-14T07:21:04.452Z,5.78
2023-05-14T07:22:04.465Z,5.61
2023-05-14T07:23:04.450Z,5.62
2023-05-14T07:24:04.448Z,5.62
2023-05-14T07:25:04.448Z,5.61
2023-05-14T07:26:04.457Z,5.73
2023-05-14T07:27:04.502Z,5.58
2023-05-14T07:28:04.500Z,5.57
2023-05-14T07:29:04.460Z,5.50
2023-05-14T07:30:04.525Z,5.65
2023-05-14T07:31:04.541Z,5.63
2023-05-14T07:32:04.478Z,5.59
2023-05-14T07:33:04.610Z,5.60
2023-05-14T07:34:04.547Z,5.58
2023-05-14T07:35:04.587Z,5.57
2023-05-14T07:36:04.624Z,5.56
2023-05-14T07:37:04.675Z,5.49
2023-05-14T07:38:04.686Z,5.54
2023-05-14T07:39:04.747Z,5.46
2023-05-14T07:40:04.775Z,5.58
2023-05-14T07:41:04.789Z,5.58
2023-05-14T07:42:04.800Z,5.65
2023-05-14T07:43:04.834Z,5.57
2023-05-14T07:44:04.828Z,5.47
2023-05-14T07:45:04.901Z,5.49
2023-05-14T07:46:04.948Z,5.43
2023-05-14T07:47:05.048Z,5.37
2023-05-14T07:48:05.037Z,5.53
2023-05-14T07:49:05.022Z,5.34
2023-05-14T07:50:04.996Z,5.25
2023-05-14T07:51:05.070Z,5.39
2023-05-14T07:52:05.055Z,5.39
2023-05-14T07:53:05.110Z,5.33
2023-05-14T07:54:05.145Z,5.40
2023-05-14T07:55:05.219Z,5.53
2023-05-14T07:56:05.227Z,5.44
2023-05-14T07:57:05.268Z,5.44
2023-05-14T07:58:05.320Z,5.55
2023-05-14T07:59:05.351Z,5.51
2023-05-14T08:00:05.430Z,5.34
2023-05-14T08:01:05.477Z,5.35
2023-05-14T08:02:05.593Z,5.28
2023-05-14T08:03:05.684Z,5.56
2023-05-14T08:04:05.754Z,5.46
2023-05-14T08:05:05.742Z,5.53
2023-05-14T08:06:05.815Z,5.57
2023-05-14T08:07:05.915Z,5.57
2023-05-14T08:08:05.971Z,5.52
2023-05-14T08:09:05.978Z,5.42
2023-05-14T08:10:06.045Z,5.56
2023-05-14T08:11:06.172Z,5.48
2023-05-14T08:12:06.167Z,5.47
2023-05-14T08:13:06.260Z,5.37
2023-05-14T08:14:06.335Z,5.41
2023-05-14T08:15:06.417Z,5.40
2023-05-14T08:16:06.441Z,5.35
2023-05-14T08:17:06.512Z,5.31
2023-05-14T08:18:06.561Z,5.37
2023-05-14T08:19:06.639Z,5.37
2023-05-14T08:20:06.657Z,5.31
2023-05-14T08:21:06.709Z,5.26
2023-05-14T08:22:06.768Z,5.29
2023-05-14T08:23:06.835Z,5.31
2023-05-14T08:24:06.900Z,5.21
2023-05-14T08:25:06.948Z,5.19
2023-05-14T08:26:06.965Z,5.19
2023-05-14T08:27:07.033Z,5.19
2023-05-14T08:28:07.147Z,5.03
2023-05-14T08:29:08.723Z,5.12
2023-05-14T08:30:07.145Z,5.03
2023-05-14T08:31:07.155Z,5.19
2023-05-14T08:32:19.359Z,5.00
2023-05-14T08:33:08.168Z,5.02
2023-05-14T08:34:07.140Z,5.04
2023-05-14T08:35:07.114Z,5.10
2023-05-14T08:36:07.133Z,5.10
2023-05-14T08:37:07.104Z,5.15
2023-05-14T08:38:07.095Z,5.05
2023-05-14T08:39:07.102Z,5.15
2023-05-14T08:40:07.106Z,5.20
2023-05-14T08:41:07.074Z,4.96
2023-05-14T08:42:07.079Z,5.02
2023-05-14T08:43:07.140Z,5.04
2023-05-14T08:44:07.156Z,5.01
2023-05-14T08:45:07.146Z,4.94
2023-05-14T08:46:07.208Z,5.07
2023-05-14T08:47:07.253Z,4.96
2023-05-14T08:48:07.344Z,5.00
2023-05-14T08:49:07.402Z,4.88
2023-05-14T08:50:07.362Z,4.85
2023-05-14T08:51:07.427Z,4.87
2023-05-14T08:52:07.451Z,4.90
2023-05-14T08:53:07.504Z,4.87
2023-05-14T08:54:07.561Z,4.85
2023-05-14T08:55:07.538Z,4.82
2023-05-14T08:56:07.625Z,4.91
2023-05-14T08:57:07.628Z,4.83
2023-05-14T08:58:07.697Z,4.83
2023-05-14T08:59:07.674Z,4.78
2023-05-14T09:00:07.701Z,4.91
2023-05-14T09:01:07.788Z,4.73
2023-05-14T09:02:07.921Z,4.74
2023-05-14T09:03:08.057Z,4.73
2023-05-14T09:04:07.902Z,4.56
2023-05-14T09:05:07.915Z,4.60
2023-05-14T09:06:07.935Z,4.76
2023-05-14T09:07:08.001Z,4.81
2023-05-14T09:08:07.973Z,4.78
2023-05-14T09:09:08.031Z,4.71
2023-05-14T09:10:08.098Z,4.74
2023-05-14T09:11:08.182Z,4.67
2023-05-14T09:12:08.147Z,4.79
2023-05-14T09:13:08.212Z,4.75
2023-05-14T09:14:08.174Z,4.69
2023-05-14T09:15:08.262Z,4.68
2023-05-14T09:16:08.288Z,4.73
2023-05-14T09:17:08.326Z,4.74
2023-05-14T09:18:08.449Z,4.66
2023-05-14T09:19:08.364Z,4.67
2023-05-14T09:20:08.418Z,4.75
2023-05-14T09:21:08.431Z,4.71
2023-05-14T09:22:08.432Z,4.75
2023-05-14T09:23:08.488Z,4.73
2023-05-14T09:24:08.548Z,4.71
2023-05-14T09:25:08.548Z,4.71
2023-05-14T09:26:08.585Z,4.61
2023-05-14T09:27:08.598Z,4.72
2023-05-14T09:28:08.623Z,4.76
2023-05-14T09:29:08.634Z,4.71
2023-05-14T09:30:08.657Z,4.67
2023-05-14T09:31:08.700Z,4.73
2023-05-14T09:32:08.776Z,4.73
2023-05-14T09:33:08.782Z,4.81
2023-05-14T09:34:08.750Z,4.73
2023-05-14T09:35:08.817Z,4.76
2023-05-14T09:36:08.812Z,4.78
2023-05-14T09:37:08.845Z,4.72
2023-05-14T09:38:08.880Z,4.71
2023-05-14T09:39:08.874Z,4.76
2023-05-14T09:40:08.892Z,4.72
2023-05-14T09:41:08.965Z,4.59
2023-05-14T09:42:08.914Z,4.69
2023-05-14T09:43:08.956Z,4.63
2023-05-14T09:44:08.981Z,4.65
2023-05-14T09:45:09.008Z,4.73
2023-05-14T09:46:09.013Z,4.61
2023-05-14T09:47:09.084Z,4.69
2023-05-14T09:48:09.133Z,4.61
2023-05-14T09:49:09.079Z,4.62
2023-05-14T09:50:09.149Z,4.59
2023-05-14T09:51:09.121Z,4.56
2023-05-14T09:52:09.143Z,4.71
2023-05-14T09:53:09.135Z,4.53
2023-05-14T09:54:09.145Z,4.63
2023-05-14T09:55:09.155Z,4.63
2023-05-14T09:56:09.153Z,4.59
2023-05-14T09:57:09.173Z,4.49
2023-05-14T09:58:09.203Z,4.54
2023-05-14T09:59:09.203Z,4.61
2023-05-14T10:00:09.202Z,4.57
2023-05-14T10:01:09.260Z,4.52
2023-05-14T10:02:09.248Z,4.58
2023-05-14T10:03:09.273Z,4.50
2023-05-14T10:04:09.259Z,4.49
2023-05-14T10:05:09.262Z,4.59
2023-05-14T10:06:09.271Z,4.52
2023-05-14T10:07:09.278Z,4.51
2023-05-14T10:08:09.297Z,4.50
2023-05-14T10:09:09.293Z,4.50
2023-05-14T10:10:09.300Z,4.50
2023-05-14T10:11:09.299Z,4.53
2023-05-14T10:12:09.304Z,4.43
2023-05-14T10:13:09.314Z,4.41
2023-05-14T10:14:09.356Z,4.41
2023-05-14T10:15:09.309Z,4.37
2023-05-14T10:16:09.306Z,4.42
2023-05-14T10:17:09.396Z,4.46
2023-05-14T10:18:09.426Z,4.51
2023-05-14T10:19:09.472Z,4.44
2023-05-14T10:20:09.390Z,4.42
2023-05-14T10:21:09.361Z,4.39
2023-05-14T10:22:09.382Z,4.40
2023-05-14T10:23:09.426Z,4.44
2023-05-14T10:24:09.372Z,4.28
2023-05-14T10:25:09.420Z,4.43
2023-05-14T10:26:09.391Z,4.38
2023-05-14T10:27:09.399Z,4.34
2023-05-14T10:28:09.415Z,4.32
2023-05-14T10:29:09.448Z,4.39
2023-05-14T10:30:09.392Z,4.27
2023-05-14T10:31:09.447Z,4.28
2023-05-14T10:32:09.416Z,4.32
2023-05-14T10:33:09.458Z,4.22
2023-05-14T10:34:09.417Z,4.24
2023-05-14T10:35:09.421Z,4.30
2023-05-14T10:36:09.383Z,4.24
2023-05-14T10:37:09.437Z,4.32
2023-05-14T10:38:09.411Z,4.24
2023-05-14T10:39:09.409Z,4.21
2023-05-14T10:40:09.413Z,4.22
2023-05-14T10:41:09.435Z,4.23
2023-05-14T10:42:09.392Z,4.20
2023-05-14T10:43:09.395Z,4.18
2023-05-14T10:44:09.471Z,4.22
2023-05-14T10:45:09.417Z,4.15
2023-05-14T10:46:09.498Z,4.23
2023-05-14T10:47:09.437Z,4.14
2023-05-14T10:48:09.465Z,4.17
2023-05-14T10:49:09.418Z,4.21
2023-05-14T10:50:09.436Z,4.16
2023-05-14T10:51:09.455Z,4.15
2023-05-14T10:52:09.450Z,4.14
2023-05-14T10:53:09.441Z,4.16
2023-05-14T10:54:09.412Z,4.14
2023-05-14T10:55:09.412Z,4.10
2023-05-14T10:56:09.457Z,4.09
2023-05-14T10:57:09.431Z,4.17
2023-05-14T10:58:09.406Z,4.14
2023-05-14T10:59:09.410Z,4.05
2023-05-14T11:00:09.415Z,4.17
2023-05-14T11:01:09.434Z,4.08
2023-05-14T11:02:09.527Z,4.04
2023-05-14T11:03:09.495Z,4.13
2023-05-14T11:04:09.495Z,4.05
2023-05-14T11:05:09.446Z,4.15
2023-05-14T11:06:09.439Z,4.03
2023-05-14T11:07:09.472Z,4.04
2023-05-14T11:08:09.477Z,3.99
2023-05-14T11:09:09.447Z,3.98
2023-05-14T11:10:09.446Z,4.02
2023-05-14T11:11:09.478Z,4.01
2023-05-14T11:12:09.485Z,3.96
2023-05-14T11:13:09.437Z,4.06
2023-05-14T11:14:10.210Z,3.97
2023-05-14T11:15:09.507Z,3.98
2023-05-14T11:16:21.709Z,3.98
2023-05-14T11:17:10.655Z,3.98
2023-05-14T11:18:09.556Z,3.98
2023-05-14T11:19:09.494Z,3.94
2023-05-14T11:20:09.452Z,3.99
2023-05-14T11:21:09.484Z,3.94
2023-05-14T11:22:09.437Z,3.93
2023-05-14T11:23:09.466Z,4.00
2023-05-14T11:24:09.460Z,3.88
2023-05-14T11:25:09.453Z,3.88
2023-05-14T11:26:09.418Z,3.93
2023-05-14T11:27:09.403Z,3.93
2023-05-14T11:28:09.411Z,3.94
2023-05-14T11:29:09.398Z,3.81
2023-05-14T11:30:09.409Z,3.80
2023-05-14T11:31:09.397Z,3.90
2023-05-14T11:32:09.404Z,3.80
2023-05-14T11:33:09.385Z,3.73
2023-05-14T11:34:09.378Z,3.86
2023-05-14T11:35:09.408Z,3.79
2023-05-14T11:36:09.358Z,3.79
2023-05-14T11:37:09.339Z,3.74
2023-05-14T11:38:09.393Z,3.87
2023-05-14T11:39:09.314Z,3.81
2023-05-14T11:40:09.327Z,3.79
2023-05-14T11:41:09.316Z,3.83
2023-05-14T11:42:09.293Z,3.77
2023-05-14T11:43:09.275Z,3.77
2023-05-14T11:44:09.280Z,3.78
2023-05-14T11:45:09.292Z,3.74
2023-05-14T11:46:09.318Z,3.76
2023-05-14T11:47:09.297Z,3.79
2023-05-14T11:48:09.275Z,3.70
2023-05-14T11:49:09.246Z,3.78
2023-05-14T11:50:09.646Z,3.70
2023-05-14T11:51:09.219Z,3.73
2023-05-14T11:52:09.237Z,3.73
2023-05-14T11:53:09.302Z,3.74
2023-05-14T11:54:09.208Z,3.75
2023-05-14T11:55:09.251Z,3.70
2023-05-14T11:56:09.918Z,3.77
2023-05-14T11:57:09.185Z,3.64
2023-05-14T11:58:09.170Z,3.69
2023-05-14T11:59:09.169Z,3.62
2023-05-14T12:00:09.216Z,3.73
2023-05-14T12:01:09.148Z,3.71
2023-05-14T12:02:09.193Z,3.73
2023-05-14T12:03:09.257Z,3.69
2023-05-14T12:04:09.191Z,3.63
2023-05-14T12:05:09.179Z,3.60
2023-05-14T12:06:09.126Z,3.57
2023-05-14T12:07:09.141Z,3.63
2023-05-14T12:08:09.124Z,3.66
2023-05-14T12:09:09.277Z,3.57
2023-05-14T12:10:09.111Z,3.70
2023-05-14T12:11:09.126Z,3.69
2023-05-14T12:12:09.095Z,3.59
2023-05-14T12:13:09.092Z,3.61
2023-05-14T12:14:09.117Z,3.63
2023-05-14T12:15:09.117Z,3.52
2023-05-14T12:16:09.166Z,3.56
2023-05-14T12:17:09.121Z,3.65
2023-05-14T12:18:22.971Z,3.55
2023-05-14T12:19:10.176Z,3.55
2023-05-14T12:20:09.128Z,3.56
2023-05-14T12:21:09.127Z,3.56
2023-05-14T12:22:09.114Z,3.61
2023-05-14T12:23:09.102Z,3.58
2023-05-14T12:24:09.072Z,3.57
2023-05-14T12:25:09.090Z,3.53
2023-05-14T12:26:09.098Z,3.49
2023-05-14T12:27:09.099Z,3.50
2023-05-14T12:28:09.075Z,3.55
2023-05-14T12:29:09.039Z,3.54
2023-05-14T12:30:19.799Z,3.47
2023-05-14T12:31:10.080Z,3.48
2023-05-14T12:32:09.051Z,3.49
2023-05-14T12:33:09.091Z,3.48
2023-05-14T12:34:09.005Z,3.52
2023-05-14T12:35:09.048Z,3.50
2023-05-14T12:37:09.036Z,3.49
2023-05-14T12:38:09.008Z,3.41
2023-05-14T12:39:09.002Z,3.44
2023-05-14T12:40:09.082Z,3.35
2023-05-14T12:41:09.027Z,3.46
2023-05-14T12:42:08.966Z,3.36
2023-05-14T12:43:08.968Z,3.36
2023-05-14T12:44:08.944Z,3.40
2023-05-14T12:45:09.059Z,3.43
2023-05-14T12:46:08.985Z,3.42
2023-05-14T12:47:08.992Z,3.33
2023-05-14T12:48:08.995Z,3.35
2023-05-14T12:49:08.905Z,3.35
2023-05-14T12:50:08.902Z,3.35
2023-05-14T12:51:08.917Z,3.36
2023-05-14T12:53:09.919Z,3.38
2023-05-14T12:54:08.884Z,3.39
2023-05-14T12:55:08.974Z,3.39
2023-05-14T12:56:08.850Z,3.42
2023-05-14T12:57:08.865Z,3.34
2023-05-14T12:58:08.865Z,3.33
2023-05-14T12:59:08.855Z,3.37
2023-05-14T13:00:09.292Z,3.41
2023-05-14T13:01:08.946Z,3.32
2023-05-14T13:02:08.842Z,3.28
2023-05-14T13:03:08.865Z,3.37
2023-05-14T13:04:08.884Z,3.34
2023-05-14T13:05:08.813Z,3.35
2023-05-14T13:06:08.841Z,3.27
2023-05-14T13:07:08.836Z,3.32
2023-05-14T13:08:08.807Z,3.24
2023-05-14T13:09:08.831Z,3.27
2023-05-14T13:10:08.793Z,3.25
2023-05-14T13:11:08.752Z,3.26
2023-05-14T13:12:08.766Z,3.23
2023-05-14T13:13:08.755Z,3.38